KBEH/BEH METAR and TAF weather

Enter ICAO airport designator
Station Type Date Time Source
KBEH METAR 2020/01/23 14:53 UTC NOAA

KBEH 231453Z AUTO 16004KT 10SM FEW033 SCT042 OVC049 01/M05 A3011 RMK AO2 SNE14 SLP203 P0000 60000 T00111050 58005


Station Type Date Time Source
KBEH Decoded METAR 2020/01/23 14:53 UTC NOAA

SOUTHWEST MICHIGAN REGIONAL, MI, United States (KBEH) 42-08N 86-25W 191M
Jan 23, 2020 - 09:53 AM EST / 2020.01.23 1453 UTC
Wind: from the SSE (160 degrees) at 5 MPH (4 KT):0
Visibility: 10 mile(s):0
Sky conditions: overcast
Precipitation last hour: A trace
Temperature: 34.0 F (1.1 C)
Windchill: 30 F (-1 C):1
Dew Point: 23.0 F (-5.0 C)
Relative Humidity: 63%
Pressure (altimeter): 30.11 in. Hg (1019 hPa)
Pressure tendency: 0.01 inches (0.5 hPa) lower than three hours ago
ob: KBEH 231453Z AUTO 16004KT 10SM FEW033 SCT042 OVC049 01/M05 A3011 RMK AO2 SNE14 SLP203 P0000 60000 T00111050 58005
cycle: 15

Station Type Date Time Source
KBEH TAF UTC NOAA

Error!

Example: see airport list